sensor_id;sensor_type;location;lat;lon;timestamp;P1;durP1;ratioP1;P2;durP2;ratioP2
11422;SDS011;5768;51.476;7.210;2023-08-30T00:04:29;9.70;;;8.77;;
11422;SDS011;5768;51.476;7.210;2023-08-30T00:09:31;8.98;;;8.15;;
11422;SDS011;5768;51.476;7.210;2023-08-30T00:14:37;9.57;;;8.75;;
11422;SDS011;5768;51.476;7.210;2023-08-30T00:19:40;12.63;;;9.82;;
11422;SDS011;5768;51.476;7.210;2023-08-30T00:24:42;10.27;;;9.32;;
11422;SDS011;5768;51.476;7.210;2023-08-30T00:29:46;11.20;;;9.85;;
11422;SDS011;5768;51.476;7.210;2023-08-30T00:34:49;11.27;;;10.18;;
11422;SDS011;5768;51.476;7.210;2023-08-30T00:39:52;12.93;;;10.43;;
11422;SDS011;5768;51.476;7.210;2023-08-30T00:44:56;12.35;;;10.75;;
11422;SDS011;5768;51.476;7.210;2023-08-30T00:49:58;12.10;;;10.88;;
11422;SDS011;5768;51.476;7.210;2023-08-30T00:55:01;11.32;;;10.27;;
11422;SDS011;5768;51.476;7.210;2023-08-30T01:00:06;12.32;;;10.80;;
11422;SDS011;5768;51.476;7.210;2023-08-30T01:05:12;12.90;;;11.68;;
11422;SDS011;5768;51.476;7.210;2023-08-30T01:10:14;11.52;;;10.40;;
11422;SDS011;5768;51.476;7.210;2023-08-30T01:15:19;13.10;;;11.10;;
11422;SDS011;5768;51.476;7.210;2023-08-30T01:20:23;13.85;;;11.95;;
11422;SDS011;5768;51.476;7.210;2023-08-30T01:25:31;13.50;;;11.43;;
11422;SDS011;5768;51.476;7.210;2023-08-30T01:30:45;13.65;;;12.07;;
11422;SDS011;5768;51.476;7.210;2023-08-30T01:35:49;13.38;;;11.98;;
11422;SDS011;5768;51.476;7.210;2023-08-30T01:40:52;13.18;;;11.80;;
11422;SDS011;5768;51.476;7.210;2023-08-30T01:45:59;13.90;;;12.48;;
11422;SDS011;5768;51.476;7.210;2023-08-30T01:51:04;13.50;;;12.10;;
11422;SDS011;5768;51.476;7.210;2023-08-30T01:56:08;13.38;;;12.00;;
11422;SDS011;5768;51.476;7.210;2023-08-30T02:01:12;14.50;;;13.10;;
11422;SDS011;5768;51.476;7.210;2023-08-30T02:06:16;15.43;;;13.75;;
11422;SDS011;5768;51.476;7.210;2023-08-30T02:11:26;15.27;;;13.38;;
11422;SDS011;5768;51.476;7.210;2023-08-30T02:16:35;17.92;;;14.98;;
11422;SDS011;5768;51.476;7.210;2023-08-30T02:21:39;16.13;;;14.52;;
11422;SDS011;5768;51.476;7.210;2023-08-30T02:26:42;16.98;;;14.95;;
11422;SDS011;5768;51.476;7.210;2023-08-30T02:31:45;17.67;;;15.90;;
11422;SDS011;5768;51.476;7.210;2023-08-30T02:36:48;20.55;;;16.80;;
11422;SDS011;5768;51.476;7.210;2023-08-30T02:41:50;18.58;;;16.60;;
11422;SDS011;5768;51.476;7.210;2023-08-30T02:46:53;19.20;;;16.80;;
11422;SDS011;5768;51.476;7.210;2023-08-30T02:51:55;19.95;;;16.42;;
11422;SDS011;5768;51.476;7.210;2023-08-30T02:56:58;21.35;;;16.83;;
11422;SDS011;5768;51.476;7.210;2023-08-30T03:02:01;19.17;;;17.23;;
11422;SDS011;5768;51.476;7.210;2023-08-30T03:07:04;22.88;;;18.63;;
11422;SDS011;5768;51.476;7.210;2023-08-30T03:12:06;21.23;;;18.88;;
11422;SDS011;5768;51.476;7.210;2023-08-30T03:17:10;21.58;;;19.27;;
11422;SDS011;5768;51.476;7.210;2023-08-30T03:22:12;23.63;;;20.85;;
11422;SDS011;5768;51.476;7.210;2023-08-30T03:27:14;23.17;;;20.73;;
11422;SDS011;5768;51.476;7.210;2023-08-30T03:32:18;27.08;;;23.45;;
11422;SDS011;5768;51.476;7.210;2023-08-30T03:37:21;29.73;;;23.88;;
11422;SDS011;5768;51.476;7.210;2023-08-30T03:42:23;29.48;;;24.13;;
11422;SDS011;5768;51.476;7.210;2023-08-30T03:47:27;27.98;;;24.50;;
11422;SDS011;5768;51.476;7.210;2023-08-30T03:52:29;33.50;;;26.45;;
11422;SDS011;5768;51.476;7.210;2023-08-30T03:57:31;32.50;;;26.90;;
11422;SDS011;5768;51.476;7.210;2023-08-30T04:02:36;32.50;;;25.88;;
11422;SDS011;5768;51.476;7.210;2023-08-30T04:07:38;32.30;;;27.42;;
11422;SDS011;5768;51.476;7.210;2023-08-30T04:12:40;36.10;;;27.02;;
11422;SDS011;5768;51.476;7.210;2023-08-30T04:17:43;36.05;;;28.23;;
11422;SDS011;5768;51.476;7.210;2023-08-30T04:22:46;35.25;;;28.05;;
11422;SDS011;5768;51.476;7.210;2023-08-30T04:27:48;38.55;;;29.45;;
11422;SDS011;5768;51.476;7.210;2023-08-30T04:32:52;37.38;;;29.00;;
11422;SDS011;5768;51.476;7.210;2023-08-30T04:37:54;41.05;;;30.05;;
11422;SDS011;5768;51.476;7.210;2023-08-30T04:42:57;38.47;;;31.77;;
11422;SDS011;5768;51.476;7.210;2023-08-30T04:48:01;45.58;;;33.13;;
11422;SDS011;5768;51.476;7.210;2023-08-30T04:53:04;42.78;;;33.30;;
11422;SDS011;5768;51.476;7.210;2023-08-30T04:58:07;45.78;;;33.70;;
11422;SDS011;5768;51.476;7.210;2023-08-30T05:03:11;46.70;;;34.28;;
11422;SDS011;5768;51.476;7.210;2023-08-30T05:08:13;40.10;;;32.13;;
11422;SDS011;5768;51.476;7.210;2023-08-30T05:13:15;49.75;;;35.33;;
11422;SDS011;5768;51.476;7.210;2023-08-30T05:18:19;45.67;;;34.88;;
11422;SDS011;5768;51.476;7.210;2023-08-30T05:23:21;45.83;;;35.17;;
11422;SDS011;5768;51.476;7.210;2023-08-30T05:28:23;43.33;;;34.28;;
11422;SDS011;5768;51.476;7.210;2023-08-30T05:33:27;44.47;;;34.95;;
11422;SDS011;5768;51.476;7.210;2023-08-30T05:38:29;39.45;;;33.17;;
11422;SDS011;5768;51.476;7.210;2023-08-30T05:43:31;42.13;;;33.40;;
11422;SDS011;5768;51.476;7.210;2023-08-30T05:48:35;36.70;;;31.20;;
11422;SDS011;5768;51.476;7.210;2023-08-30T05:53:37;40.35;;;31.98;;
11422;SDS011;5768;51.476;7.210;2023-08-30T05:58:39;35.10;;;30.02;;
11422;SDS011;5768;51.476;7.210;2023-08-30T06:03:43;33.78;;;28.27;;
11422;SDS011;5768;51.476;7.210;2023-08-30T06:08:46;32.75;;;28.98;;
11422;SDS011;5768;51.476;7.210;2023-08-30T06:13:48;33.40;;;28.38;;
11422;SDS011;5768;51.476;7.210;2023-08-30T06:18:52;33.50;;;27.38;;
11422;SDS011;5768;51.476;7.210;2023-08-30T06:23:54;32.95;;;27.90;;
11422;SDS011;5768;51.476;7.210;2023-08-30T06:28:56;30.77;;;27.50;;
11422;SDS011;5768;51.476;7.210;2023-08-30T06:34:00;30.92;;;27.83;;
11422;SDS011;5768;51.476;7.210;2023-08-30T06:39:02;36.47;;;32.53;;
11422;SDS011;5768;51.476;7.210;2023-08-30T06:44:05;29.05;;;25.95;;
11422;SDS011;5768;51.476;7.210;2023-08-30T06:49:08;29.05;;;25.92;;
11422;SDS011;5768;51.476;7.210;2023-08-30T06:54:11;27.35;;;24.45;;
11422;SDS011;5768;51.476;7.210;2023-08-30T06:59:14;25.58;;;23.08;;
11422;SDS011;5768;51.476;7.210;2023-08-30T07:04:18;24.27;;;21.90;;
11422;SDS011;5768;51.476;7.210;2023-08-30T07:09:20;22.17;;;19.63;;
11422;SDS011;5768;51.476;7.210;2023-08-30T07:14:28;21.38;;;19.25;;
11422;SDS011;5768;51.476;7.210;2023-08-30T07:19:32;20.75;;;18.65;;
11422;SDS011;5768;51.476;7.210;2023-08-30T07:24:34;19.25;;;17.45;;
11422;SDS011;5768;51.476;7.210;2023-08-30T07:29:36;18.27;;;16.38;;
11422;SDS011;5768;51.476;7.210;2023-08-30T07:34:41;17.40;;;15.57;;
11422;SDS011;5768;51.476;7.210;2023-08-30T07:39:43;16.48;;;14.88;;
11422;SDS011;5768;51.476;7.210;2023-08-30T07:44:46;15.20;;;13.38;;
11422;SDS011;5768;51.476;7.210;2023-08-30T07:49:49;13.15;;;11.77;;
11422;SDS011;5768;51.476;7.210;2023-08-30T07:54:51;12.13;;;10.88;;
11422;SDS011;5768;51.476;7.210;2023-08-30T07:59:54;11.52;;;10.43;;
11422;SDS011;5768;51.476;7.210;2023-08-30T08:04:57;11.05;;;9.38;;
11422;SDS011;5768;51.476;7.210;2023-08-30T08:10:00;9.60;;;8.75;;
11422;SDS011;5768;51.476;7.210;2023-08-30T08:15:02;8.77;;;7.97;;
11422;SDS011;5768;51.476;7.210;2023-08-30T08:20:07;7.90;;;7.07;;
11422;SDS011;5768;51.476;7.210;2023-08-30T08:25:10;8.80;;;6.95;;
11422;SDS011;5768;51.476;7.210;2023-08-30T08:30:13;6.90;;;6.03;;
11422;SDS011;5768;51.476;7.210;2023-08-30T08:35:17;6.22;;;4.90;;
11422;SDS011;5768;51.476;7.210;2023-08-30T08:40:19;5.30;;;4.72;;
11422;SDS011;5768;51.476;7.210;2023-08-30T08:45:21;5.70;;;3.60;;
11422;SDS011;5768;51.476;7.210;2023-08-30T08:50:26;4.90;;;3.83;;
11422;SDS011;5768;51.476;7.210;2023-08-30T08:55:30;5.80;;;3.90;;
11422;SDS011;5768;51.476;7.210;2023-08-30T09:00:34;8.13;;;4.60;;
11422;SDS011;5768;51.476;7.210;2023-08-30T09:05:39;5.30;;;4.32;;
11422;SDS011;5768;51.476;7.210;2023-08-30T09:10:42;5.97;;;4.43;;
11422;SDS011;5768;51.476;7.210;2023-08-30T09:15:45;7.93;;;4.38;;
11422;SDS011;5768;51.476;7.210;2023-08-30T09:20:49;5.88;;;3.95;;
11422;SDS011;5768;51.476;7.210;2023-08-30T09:25:54;5.15;;;4.10;;
11422;SDS011;5768;51.476;7.210;2023-08-30T09:30:57;4.38;;;3.97;;
11422;SDS011;5768;51.476;7.210;2023-08-30T09:36:02;4.60;;;3.58;;
11422;SDS011;5768;51.476;7.210;2023-08-30T09:41:11;5.63;;;3.92;;
11422;SDS011;5768;51.476;7.210;2023-08-30T09:46:13;6.22;;;4.20;;
11422;SDS011;5768;51.476;7.210;2023-08-30T09:51:18;4.88;;;4.15;;
11422;SDS011;5768;51.476;7.210;2023-08-30T09:56:25;5.82;;;4.30;;
11422;SDS011;5768;51.476;7.210;2023-08-30T10:01:29;4.80;;;4.20;;
11422;SDS011;5768;51.476;7.210;2023-08-30T10:06:33;6.80;;;4.82;;
11422;SDS011;5768;51.476;7.210;2023-08-30T10:11:36;9.27;;;4.45;;
11422;SDS011;5768;51.476;7.210;2023-08-30T10:16:40;5.93;;;4.45;;
11422;SDS011;5768;51.476;7.210;2023-08-30T10:21:46;6.22;;;4.65;;
11422;SDS011;5768;51.476;7.210;2023-08-30T10:26:54;5.40;;;4.90;;
11422;SDS011;5768;51.476;7.210;2023-08-30T10:32:01;6.07;;;5.30;;
11422;SDS011;5768;51.476;7.210;2023-08-30T10:37:12;6.38;;;5.43;;
11422;SDS011;5768;51.476;7.210;2023-08-30T10:42:15;5.88;;;5.30;;
11422;SDS011;5768;51.476;7.210;2023-08-30T10:47:19;6.40;;;5.80;;
11422;SDS011;5768;51.476;7.210;2023-08-30T10:52:25;9.85;;;6.38;;
11422;SDS011;5768;51.476;7.210;2023-08-30T10:57:29;7.28;;;6.57;;
11422;SDS011;5768;51.476;7.210;2023-08-30T11:02:31;7.43;;;6.72;;
11422;SDS011;5768;51.476;7.210;2023-08-30T11:07:35;8.68;;;7.43;;
11422;SDS011;5768;51.476;7.210;2023-08-30T11:12:39;6.63;;;6.00;;
11422;SDS011;5768;51.476;7.210;2023-08-30T11:17:42;8.05;;;7.35;;
11422;SDS011;5768;51.476;7.210;2023-08-30T11:22:47;8.98;;;7.75;;
11422;SDS011;5768;51.476;7.210;2023-08-30T11:27:50;9.00;;;8.18;;
11422;SDS011;5768;51.476;7.210;2023-08-30T11:33:03;10.10;;;8.75;;
11422;SDS011;5768;51.476;7.210;2023-08-30T11:38:07;9.63;;;8.70;;
11422;SDS011;5768;51.476;7.210;2023-08-30T11:43:10;10.40;;;9.18;;
11422;SDS011;5768;51.476;7.210;2023-08-30T11:48:12;10.25;;;9.35;;
11422;SDS011;5768;51.476;7.210;2023-08-30T11:53:18;9.00;;;8.10;;
11422;SDS011;5768;51.476;7.210;2023-08-30T11:58:21;7.93;;;7.13;;
11422;SDS011;5768;51.476;7.210;2023-08-30T12:03:26;5.25;;;4.72;;
11422;SDS011;5768;51.476;7.210;2023-08-30T12:08:30;3.60;;;3.30;;
11422;SDS011;5768;51.476;7.210;2023-08-30T12:13:33;5.63;;;3.42;;
11422;SDS011;5768;51.476;7.210;2023-08-30T12:18:36;3.20;;;2.90;;
11422;SDS011;5768;51.476;7.210;2023-08-30T12:23:39;3.33;;;3.03;;
11422;SDS011;5768;51.476;7.210;2023-08-30T12:28:42;2.80;;;2.60;;
11422;SDS011;5768;51.476;7.210;2023-08-30T12:33:46;2.88;;;2.40;;
11422;SDS011;5768;51.476;7.210;2023-08-30T12:38:49;3.50;;;3.20;;
11422;SDS011;5768;51.476;7.210;2023-08-30T12:43:52;4.03;;;3.05;;
11422;SDS011;5768;51.476;7.210;2023-08-30T12:48:54;2.90;;;2.70;;
11422;SDS011;5768;51.476;7.210;2023-08-30T12:53:58;3.13;;;2.83;;
11422;SDS011;5768;51.476;7.210;2023-08-30T12:59:00;3.75;;;3.45;;
11422;SDS011;5768;51.476;7.210;2023-08-30T13:04:03;4.20;;;2.90;;
11422;SDS011;5768;51.476;7.210;2023-08-30T13:09:07;3.78;;;3.33;;
11422;SDS011;5768;51.476;7.210;2023-08-30T13:14:09;6.63;;;3.55;;
11422;SDS011;5768;51.476;7.210;2023-08-30T13:19:12;3.50;;;3.20;;
11422;SDS011;5768;51.476;7.210;2023-08-30T13:24:16;3.60;;;3.30;;
11422;SDS011;5768;51.476;7.210;2023-08-30T13:29:18;3.53;;;3.22;;
11422;SDS011;5768;51.476;7.210;2023-08-30T13:34:21;4.28;;;3.63;;
11422;SDS011;5768;51.476;7.210;2023-08-30T13:39:25;3.97;;;3.60;;
11422;SDS011;5768;51.476;7.210;2023-08-30T13:44:28;4.00;;;3.63;;
11422;SDS011;5768;51.476;7.210;2023-08-30T13:49:30;4.15;;;3.85;;
11422;SDS011;5768;51.476;7.210;2023-08-30T13:54:34;4.45;;;4.05;;
11422;SDS011;5768;51.476;7.210;2023-08-30T13:59:36;3.70;;;3.40;;
11422;SDS011;5768;51.476;7.210;2023-08-30T14:04:38;3.88;;;3.58;;
11422;SDS011;5768;51.476;7.210;2023-08-30T14:09:42;4.13;;;3.80;;
11422;SDS011;5768;51.476;7.210;2023-08-30T14:14:44;4.25;;;3.50;;
11422;SDS011;5768;51.476;7.210;2023-08-30T14:19:47;4.50;;;3.47;;
11422;SDS011;5768;51.476;7.210;2023-08-30T14:24:51;4.68;;;3.55;;
11422;SDS011;5768;51.476;7.210;2023-08-30T14:29:53;3.85;;;3.50;;
11422;SDS011;5768;51.476;7.210;2023-08-30T14:34:55;4.90;;;3.78;;
11422;SDS011;5768;51.476;7.210;2023-08-30T14:40:01;4.25;;;3.30;;
11422;SDS011;5768;51.476;7.210;2023-08-30T14:45:05;2.95;;;2.75;;
11422;SDS011;5768;51.476;7.210;2023-08-30T14:50:09;4.05;;;3.70;;
11422;SDS011;5768;51.476;7.210;2023-08-30T14:55:13;5.07;;;3.50;;
11422;SDS011;5768;51.476;7.210;2023-08-30T15:00:16;3.58;;;3.22;;
11422;SDS011;5768;51.476;7.210;2023-08-30T15:05:19;3.03;;;2.72;;
11422;SDS011;5768;51.476;7.210;2023-08-30T15:10:23;3.95;;;3.65;;
11422;SDS011;5768;51.476;7.210;2023-08-30T15:15:25;4.78;;;3.78;;
11422;SDS011;5768;51.476;7.210;2023-08-30T15:20:30;4.40;;;4.00;;
11422;SDS011;5768;51.476;7.210;2023-08-30T15:25:34;5.28;;;4.75;;
11422;SDS011;5768;51.476;7.210;2023-08-30T15:30:36;5.60;;;4.20;;
11422;SDS011;5768;51.476;7.210;2023-08-30T15:35:38;4.38;;;3.97;;
11422;SDS011;5768;51.476;7.210;2023-08-30T15:40:43;4.40;;;4.10;;
11422;SDS011;5768;51.476;7.210;2023-08-30T15:45:45;5.20;;;4.30;;
11422;SDS011;5768;51.476;7.210;2023-08-30T15:50:48;4.88;;;4.47;;
11422;SDS011;5768;51.476;7.210;2023-08-30T15:55:52;4.13;;;3.83;;
11422;SDS011;5768;51.476;7.210;2023-08-30T16:00:54;3.70;;;3.40;;
11422;SDS011;5768;51.476;7.210;2023-08-30T16:05:58;3.78;;;3.38;;
11422;SDS011;5768;51.476;7.210;2023-08-30T16:11:01;3.55;;;2.95;;
11422;SDS011;5768;51.476;7.210;2023-08-30T16:16:04;2.92;;;2.70;;
11422;SDS011;5768;51.476;7.210;2023-08-30T16:21:06;3.72;;;2.97;;
11422;SDS011;5768;51.476;7.210;2023-08-30T16:26:10;4.05;;;3.40;;
11422;SDS011;5768;51.476;7.210;2023-08-30T16:31:13;5.28;;;4.00;;
11422;SDS011;5768;51.476;7.210;2023-08-30T16:36:18;5.03;;;4.00;;
11422;SDS011;5768;51.476;7.210;2023-08-30T16:41:21;6.75;;;4.18;;
11422;SDS011;5768;51.476;7.210;2023-08-30T16:46:23;5.45;;;4.88;;
11422;SDS011;5768;51.476;7.210;2023-08-30T16:51:26;7.00;;;4.43;;
11422;SDS011;5768;51.476;7.210;2023-08-30T16:56:29;5.38;;;4.88;;
11422;SDS011;5768;51.476;7.210;2023-08-30T17:01:32;5.00;;;4.50;;
11422;SDS011;5768;51.476;7.210;2023-08-30T17:06:34;5.45;;;4.68;;
11422;SDS011;5768;51.476;7.210;2023-08-30T17:11:38;6.80;;;4.75;;
11422;SDS011;5768;51.476;7.210;2023-08-30T17:16:44;8.18;;;5.05;;
11422;SDS011;5768;51.476;7.210;2023-08-30T17:21:46;6.00;;;4.82;;
11422;SDS011;5768;51.476;7.210;2023-08-30T17:26:50;7.60;;;5.50;;
11422;SDS011;5768;51.476;7.210;2023-08-30T17:31:53;7.82;;;5.97;;
11422;SDS011;5768;51.476;7.210;2023-08-30T17:36:55;8.98;;;6.40;;
11422;SDS011;5768;51.476;7.210;2023-08-30T17:42:01;8.60;;;6.40;;
11422;SDS011;5768;51.476;7.210;2023-08-30T17:47:04;9.80;;;7.00;;
11422;SDS011;5768;51.476;7.210;2023-08-30T17:52:06;7.55;;;6.05;;
11422;SDS011;5768;51.476;7.210;2023-08-30T17:57:10;7.05;;;5.93;;
11422;SDS011;5768;51.476;7.210;2023-08-30T18:02:12;8.00;;;6.07;;
11422;SDS011;5768;51.476;7.210;2023-08-30T18:07:15;8.73;;;7.05;;
11422;SDS011;5768;51.476;7.210;2023-08-30T18:12:19;9.55;;;7.50;;
11422;SDS011;5768;51.476;7.210;2023-08-30T18:17:21;8.95;;;7.50;;
11422;SDS011;5768;51.476;7.210;2023-08-30T18:22:24;8.07;;;7.22;;
11422;SDS011;5768;51.476;7.210;2023-08-30T18:27:29;8.32;;;5.18;;
11422;SDS011;5768;51.476;7.210;2023-08-30T18:32:32;5.43;;;4.47;;
11422;SDS011;5768;51.476;7.210;2023-08-30T18:37:36;8.43;;;4.50;;
11422;SDS011;5768;51.476;7.210;2023-08-30T18:42:40;8.30;;;4.95;;
11422;SDS011;5768;51.476;7.210;2023-08-30T18:47:42;8.10;;;4.85;;
11422;SDS011;5768;51.476;7.210;2023-08-30T18:52:44;5.47;;;3.80;;
11422;SDS011;5768;51.476;7.210;2023-08-30T18:57:48;4.90;;;3.80;;
11422;SDS011;5768;51.476;7.210;2023-08-30T19:02:50;5.78;;;3.92;;
11422;SDS011;5768;51.476;7.210;2023-08-30T19:07:53;4.55;;;3.13;;
11422;SDS011;5768;51.476;7.210;2023-08-30T19:12:56;5.22;;;3.70;;
11422;SDS011;5768;51.476;7.210;2023-08-30T19:17:59;5.85;;;3.58;;
11422;SDS011;5768;51.476;7.210;2023-08-30T19:23:01;5.13;;;3.00;;
11422;SDS011;5768;51.476;7.210;2023-08-30T19:28:06;6.30;;;3.22;;
11422;SDS011;5768;51.476;7.210;2023-08-30T19:33:08;6.72;;;3.30;;
11422;SDS011;5768;51.476;7.210;2023-08-30T19:38:16;8.43;;;3.70;;
11422;SDS011;5768;51.476;7.210;2023-08-30T19:43:19;6.95;;;3.40;;
11422;SDS011;5768;51.476;7.210;2023-08-30T19:48:22;5.57;;;3.50;;
11422;SDS011;5768;51.476;7.210;2023-08-30T19:53:24;7.35;;;3.80;;
11422;SDS011;5768;51.476;7.210;2023-08-30T19:58:30;6.30;;;4.30;;
11422;SDS011;5768;51.476;7.210;2023-08-30T20:03:33;6.80;;;5.75;;
11422;SDS011;5768;51.476;7.210;2023-08-30T20:08:37;10.10;;;6.30;;
11422;SDS011;5768;51.476;7.210;2023-08-30T20:13:41;7.93;;;6.15;;
11422;SDS011;5768;51.476;7.210;2023-08-30T20:18:43;8.30;;;6.25;;
11422;SDS011;5768;51.476;7.210;2023-08-30T20:23:48;10.05;;;5.55;;
11422;SDS011;5768;51.476;7.210;2023-08-30T20:28:52;14.98;;;7.00;;
11422;SDS011;5768;51.476;7.210;2023-08-30T20:33:55;10.93;;;7.25;;
11422;SDS011;5768;51.476;7.210;2023-08-30T20:38:57;10.73;;;8.40;;
11422;SDS011;5768;51.476;7.210;2023-08-30T20:44:01;12.98;;;8.95;;
11422;SDS011;5768;51.476;7.210;2023-08-30T20:49:04;10.77;;;9.40;;
11422;SDS011;5768;51.476;7.210;2023-08-30T20:54:07;12.45;;;8.93;;
11422;SDS011;5768;51.476;7.210;2023-08-30T20:59:14;12.52;;;8.40;;
11422;SDS011;5768;51.476;7.210;2023-08-30T21:04:17;12.18;;;8.48;;
11422;SDS011;5768;51.476;7.210;2023-08-30T21:09:19;13.50;;;7.95;;
11422;SDS011;5768;51.476;7.210;2023-08-30T21:14:22;11.05;;;7.47;;
11422;SDS011;5768;51.476;7.210;2023-08-30T21:19:25;8.93;;;7.35;;
11422;SDS011;5768;51.476;7.210;2023-08-30T21:24:27;13.85;;;7.85;;
11422;SDS011;5768;51.476;7.210;2023-08-30T21:29:31;14.40;;;6.40;;
11422;SDS011;5768;51.476;7.210;2023-08-30T21:34:33;10.77;;;6.35;;
11422;SDS011;5768;51.476;7.210;2023-08-30T21:39:36;7.25;;;5.45;;
11422;SDS011;5768;51.476;7.210;2023-08-30T21:44:41;9.65;;;5.57;;
11422;SDS011;5768;51.476;7.210;2023-08-30T21:49:43;10.57;;;5.55;;
11422;SDS011;5768;51.476;7.210;2023-08-30T21:54:48;9.55;;;5.38;;
11422;SDS011;5768;51.476;7.210;2023-08-30T21:59:51;11.23;;;6.80;;
11422;SDS011;5768;51.476;7.210;2023-08-30T22:04:54;9.15;;;6.95;;
11422;SDS011;5768;51.476;7.210;2023-08-30T22:09:57;8.80;;;6.95;;
11422;SDS011;5768;51.476;7.210;2023-08-30T22:15:01;10.57;;;6.63;;
11422;SDS011;5768;51.476;7.210;2023-08-30T22:20:06;11.38;;;6.95;;
11422;SDS011;5768;51.476;7.210;2023-08-30T22:25:10;9.77;;;6.80;;
11422;SDS011;5768;51.476;7.210;2023-08-30T22:30:16;8.50;;;6.72;;
11422;SDS011;5768;51.476;7.210;2023-08-30T22:35:18;8.82;;;6.30;;
11422;SDS011;5768;51.476;7.210;2023-08-30T22:40:20;9.32;;;5.72;;
11422;SDS011;5768;51.476;7.210;2023-08-30T22:45:24;11.13;;;6.88;;
11422;SDS011;5768;51.476;7.210;2023-08-30T22:50:28;8.45;;;5.85;;
11422;SDS011;5768;51.476;7.210;2023-08-30T22:55:30;11.48;;;6.53;;
11422;SDS011;5768;51.476;7.210;2023-08-30T23:00:34;13.40;;;5.90;;
11422;SDS011;5768;51.476;7.210;2023-08-30T23:05:37;7.55;;;4.85;;
11422;SDS011;5768;51.476;7.210;2023-08-30T23:10:41;7.75;;;5.53;;
11422;SDS011;5768;51.476;7.210;2023-08-30T23:15:46;6.82;;;4.80;;
11422;SDS011;5768;51.476;7.210;2023-08-30T23:20:49;9.18;;;4.55;;
11422;SDS011;5768;51.476;7.210;2023-08-30T23:25:57;6.07;;;4.20;;
11422;SDS011;5768;51.476;7.210;2023-08-30T23:31:00;6.93;;;4.07;;
11422;SDS011;5768;51.476;7.210;2023-08-30T23:36:06;8.13;;;3.95;;
11422;SDS011;5768;51.476;7.210;2023-08-30T23:41:08;6.68;;;3.58;;
11422;SDS011;5768;51.476;7.210;2023-08-30T23:46:12;5.97;;;3.30;;
11422;SDS011;5768;51.476;7.210;2023-08-30T23:51:14;6.63;;;3.38;;
11422;SDS011;5768;51.476;7.210;2023-08-30T23:56:17;7.18;;;3.40;;
